createdAt,value
2023-04-15T00:02:31.248Z,91.40
2023-04-15T00:06:13.660Z,91.40
2023-04-15T00:09:57.768Z,91.60
2023-04-15T00:13:39.858Z,91.50
2023-04-15T00:17:21.546Z,91.60
2023-04-15T00:21:04.813Z,91.70
2023-04-15T00:24:46.506Z,91.80
2023-04-15T00:28:28.490Z,91.80
2023-04-15T00:32:10.209Z,91.80
2023-04-15T00:35:51.958Z,91.90
2023-04-15T00:39:34.077Z,92.00
2023-04-15T00:43:16.446Z,92.10
2023-04-15T00:46:59.445Z,92.20
2023-04-15T00:50:41.246Z,92.30
2023-04-15T00:54:23.315Z,92.40
2023-04-15T00:58:05.074Z,92.30
2023-04-15T01:01:47.196Z,92.20
2023-04-15T01:05:30.223Z,92.20
2023-04-15T01:09:11.991Z,92.20
2023-04-15T01:12:53.720Z,92.30
2023-04-15T01:16:36.830Z,92.30
2023-04-15T01:20:18.667Z,92.30
2023-04-15T01:24:00.926Z,92.40
2023-04-15T01:27:43.356Z,92.30
2023-04-15T01:31:25.140Z,92.20
2023-04-15T01:35:07.710Z,92.20
2023-04-15T01:38:49.465Z,92.20
2023-04-15T01:42:32.628Z,92.30
2023-04-15T01:46:14.469Z,92.20
2023-04-15T01:49:56.219Z,92.20
2023-04-15T01:53:37.990Z,92.20
2023-04-15T01:57:19.679Z,92.20
2023-04-15T02:01:03.067Z,92.20
2023-04-15T02:04:45.322Z,92.30
2023-04-15T02:08:27.032Z,92.30
2023-04-15T02:12:09.485Z,92.30
2023-04-15T02:15:52.727Z,92.30
2023-04-15T02:19:35.475Z,92.50
2023-04-15T02:23:17.223Z,92.70
2023-04-15T02:26:58.938Z,92.80
2023-04-15T02:30:41.010Z,92.80
2023-04-15T02:34:22.701Z,92.80
2023-04-15T02:38:04.400Z,92.70
2023-04-15T02:41:51.776Z,92.60
2023-04-15T02:45:33.891Z,92.60
2023-04-15T02:49:15.952Z,92.50
2023-04-15T02:52:57.754Z,92.40
2023-04-15T02:56:39.468Z,92.30
2023-04-15T03:00:21.626Z,92.30
2023-04-15T03:04:03.592Z,92.30
2023-04-15T03:07:45.489Z,92.30
2023-04-15T03:11:27.520Z,92.40
2023-04-15T03:15:10.191Z,92.40
2023-04-15T03:18:51.935Z,92.50
2023-04-15T03:22:33.830Z,92.40
2023-04-15T03:26:27.117Z,92.40
2023-04-15T03:30:09.337Z,92.70
2023-04-15T03:33:51.239Z,92.40
2023-04-15T03:37:33.083Z,92.40
2023-04-15T03:41:14.908Z,92.30
2023-04-15T03:44:56.738Z,92.30
2023-04-15T03:48:38.547Z,92.40
2023-04-15T03:52:20.383Z,92.40
2023-04-15T03:56:02.341Z,92.40
2023-04-15T03:59:44.126Z,92.40
2023-04-15T04:03:26.065Z,92.40
2023-04-15T04:07:08.014Z,92.40
2023-04-15T04:10:49.727Z,92.40
2023-04-15T04:14:31.441Z,92.40
2023-04-15T04:18:13.152Z,92.40
2023-04-15T04:21:54.863Z,92.40
2023-04-15T04:25:36.618Z,92.40
2023-04-15T04:29:18.447Z,92.40
2023-04-15T04:33:00.445Z,92.30
2023-04-15T04:36:42.436Z,92.20
2023-04-15T04:40:24.174Z,92.20
2023-04-15T04:44:05.907Z,92.10
2023-04-15T04:47:47.958Z,92.10
2023-04-15T04:51:29.736Z,92.10
2023-04-15T04:55:11.626Z,92.10
2023-04-15T04:58:53.331Z,92.10
2023-04-15T05:02:35.462Z,92.10
2023-04-15T05:06:17.273Z,92.10
2023-04-15T05:09:58.973Z,92.20
2023-04-15T05:13:40.813Z,92.30
2023-04-15T05:17:22.614Z,92.40
2023-04-15T05:21:04.628Z,92.40
2023-04-15T05:24:46.583Z,92.40
2023-04-15T05:28:28.292Z,92.40
2023-04-15T05:32:10.786Z,92.40
2023-04-15T05:35:52.470Z,92.50
2023-04-15T05:39:34.255Z,92.60
2023-04-15T05:43:16.191Z,92.60
2023-04-15T05:46:58.047Z,92.70
2023-04-15T05:50:42.153Z,92.70
2023-04-15T05:54:23.897Z,92.90
2023-04-15T05:58:05.647Z,92.90
2023-04-15T06:01:47.467Z,93.00
2023-04-15T06:05:29.296Z,93.40
2023-04-15T06:09:11.234Z,94.40
2023-04-15T06:12:53.572Z,94.70
2023-04-15T06:16:36.674Z,94.70
2023-04-15T06:20:18.871Z,94.20
2023-04-15T06:24:03.833Z,93.80
2023-04-15T06:27:45.580Z,93.60
2023-04-15T06:31:27.438Z,93.40
2023-04-15T06:35:09.608Z,93.30
2023-04-15T06:38:51.557Z,93.40
2023-04-15T06:42:34.045Z,93.40
2023-04-15T06:46:15.822Z,93.30
2023-04-15T06:49:57.600Z,93.20
2023-04-15T06:53:41.170Z,93.30
2023-04-15T06:57:23.053Z,93.40
2023-04-15T07:01:05.271Z,93.50
2023-04-15T07:04:47.654Z,93.70
2023-04-15T07:08:29.325Z,94.20
2023-04-15T07:12:11.584Z,94.40
2023-04-15T07:15:53.309Z,94.50
2023-04-15T07:19:35.830Z,94.30
2023-04-15T07:23:18.346Z,94.10
2023-04-15T07:27:01.286Z,93.60
2023-04-15T07:30:43.276Z,93.20
2023-04-15T07:34:25.148Z,92.90
2023-04-15T07:38:06.934Z,92.70
2023-04-15T07:41:49.288Z,92.40
2023-04-15T07:45:31.901Z,92.30
2023-04-15T07:49:13.658Z,92.00
2023-04-15T07:52:55.915Z,91.80
2023-04-15T07:56:37.641Z,91.70
2023-04-15T08:00:20.158Z,91.70
2023-04-15T08:04:02.455Z,91.40
2023-04-15T08:07:44.419Z,91.30
2023-04-15T08:11:27.736Z,91.10
2023-04-15T08:15:09.559Z,91.10
2023-04-15T08:18:53.007Z,90.30
2023-04-15T08:22:34.719Z,90.50
2023-04-15T08:26:17.635Z,90.60
2023-04-15T08:29:59.412Z,90.20
2023-04-15T08:33:41.166Z,90.10
2023-04-15T08:37:23.034Z,90.00
2023-04-15T08:41:10.146Z,89.90
2023-04-15T08:44:51.966Z,89.00
2023-04-15T08:48:35.862Z,89.20
2023-04-15T08:52:17.677Z,89.20
2023-04-15T08:56:04.653Z,89.30
2023-04-15T08:59:47.021Z,88.70
2023-04-15T09:03:29.017Z,88.70
2023-04-15T09:07:10.863Z,88.50
2023-04-15T09:10:53.886Z,88.60
2023-04-15T09:14:35.672Z,88.90
2023-04-15T09:18:38.364Z,89.10
2023-04-15T09:22:21.538Z,87.40
2023-04-15T09:26:03.718Z,89.00
2023-04-15T09:29:49.784Z,88.40
2023-04-15T09:33:31.893Z,90.00
2023-04-15T09:37:28.943Z,88.70
2023-04-15T09:41:20.086Z,88.50
2023-04-15T09:45:13.906Z,86.90
2023-04-15T09:49:09.316Z,86.50
2023-04-15T09:52:51.037Z,87.10
2023-04-15T09:56:41.472Z,88.40
2023-04-15T10:00:23.241Z,87.00
2023-04-15T10:04:05.898Z,88.00
2023-04-15T10:07:48.504Z,87.90
2023-04-15T10:11:31.915Z,87.80
2023-04-15T10:15:17.723Z,87.20
2023-04-15T10:19:01.872Z,85.90
2023-04-15T10:22:45.317Z,86.70
2023-04-15T10:26:27.456Z,86.20
2023-04-15T10:30:09.642Z,85.70
2023-04-15T10:33:52.289Z,85.30
2023-04-15T10:37:38.727Z,85.40
2023-04-15T10:41:31.238Z,84.10
2023-04-15T10:45:17.771Z,82.50
2023-04-15T10:49:25.754Z,82.50
2023-04-15T10:53:11.104Z,81.20
2023-04-15T10:57:07.092Z,82.10
2023-04-15T11:00:53.184Z,80.30
2023-04-15T11:04:53.525Z,82.50
2023-04-15T11:08:58.892Z,80.90
2023-04-15T11:12:42.006Z,79.70
2023-04-15T11:16:23.919Z,82.60
2023-04-15T11:20:07.015Z,82.70
2023-04-15T11:23:48.690Z,81.70
2023-04-15T11:27:31.123Z,81.60
2023-04-15T11:31:14.871Z,81.00
2023-04-15T11:34:56.654Z,80.20
2023-04-15T11:38:42.383Z,80.90
2023-04-15T11:42:24.137Z,80.20
2023-04-15T11:46:06.012Z,79.80
2023-04-15T11:49:47.762Z,80.10
2023-04-15T11:53:45.998Z,79.60
2023-04-15T11:57:32.216Z,76.40
2023-04-15T12:01:14.193Z,76.80
2023-04-15T12:05:06.889Z,78.20
2023-04-15T12:08:55.119Z,76.10
2023-04-15T12:12:36.854Z,76.80
2023-04-15T12:16:19.867Z,77.80
2023-04-15T12:20:01.550Z,77.10
2023-04-15T12:23:51.308Z,77.30
2023-04-15T12:27:33.049Z,77.00
2023-04-15T12:31:14.874Z,78.10
2023-04-15T12:34:56.664Z,77.80
2023-04-15T12:38:38.379Z,77.40
2023-04-15T12:42:20.499Z,77.10
2023-04-15T12:46:02.760Z,76.90
2023-04-15T12:49:44.506Z,76.70
2023-04-15T12:53:26.412Z,76.90
2023-04-15T12:57:08.200Z,76.70
2023-04-15T13:00:50.291Z,76.00
2023-04-15T13:04:32.212Z,75.50
2023-04-15T13:08:14.027Z,75.50
2023-04-15T13:11:57.545Z,75.80
2023-04-15T13:15:39.418Z,76.00
2023-04-15T13:19:21.298Z,76.10
2023-04-15T13:23:03.065Z,75.90
2023-04-15T13:26:44.824Z,75.70
2023-04-15T13:30:27.524Z,75.30
2023-04-15T13:34:09.314Z,74.40
2023-04-15T13:37:51.079Z,74.40
2023-04-15T13:41:32.996Z,74.00
2023-04-15T13:45:14.756Z,73.80
2023-04-15T13:48:56.472Z,74.00
2023-04-15T13:52:38.249Z,73.80
2023-04-15T13:56:20.274Z,73.70
2023-04-15T14:00:04.115Z,73.60
2023-04-15T14:03:46.082Z,73.20
2023-04-15T14:07:30.653Z,73.00
2023-04-15T14:11:12.577Z,72.40
2023-04-15T14:14:54.414Z,72.60
2023-04-15T14:18:37.364Z,72.50
2023-04-15T14:22:19.081Z,72.60
2023-04-15T14:26:00.826Z,72.40
2023-04-15T14:29:42.901Z,72.50
2023-04-15T14:33:24.705Z,72.60
2023-04-15T14:37:06.618Z,72.80
2023-04-15T14:40:48.658Z,72.70
2023-04-15T14:48:13.385Z,72.10
2023-04-15T14:51:55.108Z,72.30
2023-04-15T14:55:36.798Z,71.20
2023-04-15T14:59:18.544Z,70.90
2023-04-15T15:03:00.611Z,70.70
2023-04-15T15:06:42.564Z,70.50
2023-04-15T15:10:46.284Z,70.40
2023-04-15T15:14:25.957Z,70.00
2023-04-15T15:18:07.882Z,69.80
2023-04-15T15:21:49.640Z,69.70
2023-04-15T15:25:31.454Z,69.80
2023-04-15T15:29:13.266Z,69.70
2023-04-15T15:32:55.030Z,69.80
2023-04-15T15:36:36.855Z,69.60
2023-04-15T15:40:18.575Z,69.60
2023-04-15T15:44:00.949Z,69.20
2023-04-15T15:47:43.027Z,69.10
2023-04-15T15:51:24.822Z,69.10
2023-04-15T15:55:07.119Z,69.40
2023-04-15T15:58:48.806Z,69.60
2023-04-15T16:02:59.853Z,69.60
2023-04-15T16:06:35.078Z,68.90
2023-04-15T16:10:17.274Z,68.60
2023-04-15T16:13:59.102Z,68.40
2023-04-15T16:17:41.151Z,68.40
2023-04-15T16:21:24.841Z,68.40
2023-04-15T16:25:07.022Z,68.50
2023-04-15T16:28:48.745Z,68.50
2023-04-15T16:32:30.968Z,68.50
2023-04-15T16:36:12.764Z,68.40
2023-04-15T16:39:54.462Z,68.40
2023-04-15T16:43:36.167Z,68.20
2023-04-15T16:47:17.999Z,68.30
2023-04-15T16:50:59.760Z,68.30
2023-04-15T16:54:41.639Z,68.20
2023-04-15T16:58:23.405Z,68.30
2023-04-15T17:02:05.422Z,68.30
2023-04-15T17:05:47.250Z,68.40
2023-04-15T17:09:28.961Z,68.50
2023-04-15T17:13:10.690Z,68.50
2023-04-15T17:16:52.472Z,68.30
2023-04-15T17:20:34.561Z,68.10
2023-04-15T17:24:16.462Z,67.80
2023-04-15T17:27:58.252Z,67.80
2023-04-15T17:31:40.066Z,68.60
2023-04-15T17:35:23.057Z,68.10
2023-04-15T17:39:05.014Z,67.90
2023-04-15T17:42:46.897Z,68.00
2023-04-15T17:46:28.825Z,68.90
2023-04-15T17:50:10.725Z,68.30
2023-04-15T17:53:52.472Z,68.60
2023-04-15T17:57:34.236Z,68.80
2023-04-15T18:01:16.062Z,69.00
2023-04-15T18:04:57.958Z,69.10
2023-04-15T18:08:39.836Z,69.10
2023-04-15T18:12:21.628Z,69.10
2023-04-15T18:16:03.487Z,69.10
2023-04-15T18:19:45.914Z,69.10
2023-04-15T18:23:27.747Z,69.10
2023-04-15T18:27:09.499Z,69.10
2023-04-15T18:30:51.423Z,69.30
2023-04-15T18:34:33.199Z,69.50
2023-04-15T18:38:15.002Z,69.70
2023-04-15T18:41:57.380Z,69.80
2023-04-15T18:45:39.220Z,69.90
2023-04-15T18:49:20.977Z,70.10
2023-04-15T18:53:02.711Z,70.10
2023-04-15T18:56:44.752Z,70.20
2023-04-15T19:00:27.159Z,70.30
2023-04-15T19:04:10.040Z,70.40
2023-04-15T19:07:51.867Z,70.50
2023-04-15T19:11:33.757Z,70.70
2023-04-15T19:15:16.750Z,70.90
2023-04-15T19:18:58.551Z,70.90
2023-04-15T19:22:40.560Z,71.00
2023-04-15T19:26:22.300Z,71.00
2023-04-15T19:30:05.613Z,71.10
2023-04-15T19:33:47.311Z,71.20
2023-04-15T19:37:29.145Z,71.40
2023-04-15T19:41:11.141Z,71.20
2023-04-15T19:44:52.960Z,71.40
2023-04-15T19:48:34.704Z,71.70
2023-04-15T19:52:16.693Z,71.90
2023-04-15T19:55:58.509Z,72.10
2023-04-15T19:59:40.698Z,72.50
2023-04-15T20:03:22.681Z,72.70
2023-04-15T20:07:04.538Z,73.00
2023-04-15T20:10:46.256Z,73.20
2023-04-15T20:14:27.974Z,73.50
2023-04-15T20:18:09.746Z,73.50
2023-04-15T20:21:52.705Z,73.70
2023-04-15T20:25:34.560Z,73.90
2023-04-15T20:29:16.353Z,74.00
2023-04-15T20:32:58.173Z,74.20
2023-04-15T20:36:39.958Z,74.30
2023-04-15T20:40:21.818Z,74.50
2023-04-15T20:44:03.529Z,74.60
2023-04-15T20:47:45.417Z,74.70
2023-04-15T20:51:27.506Z,74.90
2023-04-15T20:55:09.439Z,75.10
2023-04-15T20:58:51.232Z,75.20
2023-04-15T21:02:33.082Z,75.50
2023-04-15T21:06:14.963Z,75.70
2023-04-15T21:09:56.763Z,75.80
2023-04-15T21:13:38.474Z,76.00
2023-04-15T21:17:20.417Z,76.10
2023-04-15T21:21:03.007Z,76.20
2023-04-15T21:24:44.734Z,76.40
2023-04-15T21:28:28.004Z,76.50
2023-04-15T21:32:09.809Z,76.60
2023-04-15T21:35:52.514Z,77.30
2023-04-15T21:39:34.208Z,76.50
2023-04-15T21:43:15.904Z,76.70
2023-04-15T21:46:57.710Z,76.90
2023-04-15T21:50:39.504Z,77.10
2023-04-15T21:54:21.347Z,77.90
2023-04-15T21:58:03.074Z,77.30
2023-04-15T22:01:44.850Z,77.40
2023-04-15T22:05:26.684Z,77.60
2023-04-15T22:09:08.408Z,78.40
2023-04-15T22:12:50.221Z,77.80
2023-04-15T22:16:31.956Z,78.00
2023-04-15T22:20:13.912Z,78.20
2023-04-15T22:24:32.270Z,79.00
2023-04-15T22:27:57.516Z,78.60
2023-04-15T22:31:39.292Z,78.70
2023-04-15T22:35:21.009Z,78.90
2023-04-15T22:39:03.004Z,79.10
2023-04-15T22:42:45.802Z,79.30
2023-04-15T22:46:27.560Z,79.60
2023-04-15T22:50:09.589Z,79.60
2023-04-15T22:53:51.292Z,79.70
2023-04-15T22:57:33.036Z,79.90
2023-04-15T23:01:17.839Z,80.10
2023-04-15T23:04:59.728Z,80.40
2023-04-15T23:08:47.783Z,80.50
2023-04-15T23:12:29.534Z,80.70
2023-04-15T23:16:11.376Z,80.90
2023-04-15T23:19:53.128Z,81.00
2023-04-15T23:23:34.825Z,81.20
2023-04-15T23:27:18.915Z,81.40
2023-04-15T23:31:00.802Z,81.50
2023-04-15T23:34:42.556Z,81.70
2023-04-15T23:38:24.378Z,82.60
2023-04-15T23:42:06.163Z,82.20
2023-04-15T23:45:48.031Z,82.20
2023-04-15T23:49:29.890Z,82.30
2023-04-15T23:53:11.611Z,82.40
2023-04-15T23:56:53.340Z,82.60
